Portada
METAR-TAF:

METAR-TAF

Aeroports :

Aeroport de Sant Sebastià

Sant Sebastià, Espanya

latitud: 43-21N, longitud: 001-48W, altitud: 5 m

Observació

L'informe es va fer fa 34 minuts, a les 22:30 UTC
Vent 3 kt del Sud/Sud-Oest
Temperatura 4°C
Humitat 100%
Pressió 1013 hPa
Visibilitat 10 km o més

METAR: LESO 192230Z AUTO 20003KT 9999 NCD 04/04 Q1013

Hora: 00:04 (23:04 UTC)

Pronòstic

L'informe es va fer fa 6 hores i 4 minuts, a les 17:00 UTC
Pronòstic vàlid del 19 a les 18 UTC al 20 a les 18 UTC
Vent 4 kt amb direcció variable
Visibilitat 10 km o més
sense núvols per sota de 1500 mi sense presència de cumulonimbus.
Temporalment
l' 20 a les 00 UTC al 20 a les 18 UTC
Vent 12 kt del Sud
Probabilitat 40% :
Temporalment
l' 20 a les 09 UTC al 20 a les 18 UTC
Vent 15 kt del Sud amb ràfegues de 25 kt

TAF: LESO 191700Z 1918/2018 VRB04KT CAVOK TX17/2015Z TN05/2007Z TEMPO 2000/2018 18012KT PROB40 TEMPO 2009/2018 19015G25KT

Observacions i pronòstics meteorològics de més de 4000 aeroports (METAR i TAF).

Les estacions disponibles són els punts grocs i vermells al mapa.

Posi el ratolí al punt desitjat per veure el nom de l'estació.

Feu clic per veure les observacions i els pronòstics meteorològics.

Per canviar el mapa: feu clic els botons verds amb una creu de color negre per apropar; al botó verd amb un guió per allunyar la imatge; o en les fletxes verdes per a mapes adjacents.


METAR-TAF: